Time;durP1;ratioP1;P1;durP2;ratioP2;P2;SDS_P1;SDS_P2;PMS_P1;PMS_P2;Temp;Humidity;BMP_temperature;BMP_pressure;BME280_temperature;BME280_humidity;BME280_pressure;Samples;Min_cycle;Max_cycle;Signal;HPM_P1;HPM_P2
2023/09/15 00:02:25;;;;;;;;;;;;;;;13.23;87.05;101965.41;5033546;28;1293;-76
2023/09/15 00:04:51;;;;;;;;;;;;;;;13.21;87.41;101968.13;5027103;28;1966;-75
2023/09/15 00:07:17;;;;;;;;;;;;;;;13.21;87.14;101962.91;5033938;28;1339;-75
2023/09/15 00:09:42;;;;;;;;;;;;;;;13.21;87.39;101960.31;5029328;28;1088;-76
2023/09/15 00:12:07;;;;;;;;;;;;;;;13.19;87.38;101956.97;5030607;28;1201;-75
2023/09/15 00:14:34;;;;;;;;;;;;;;;13.18;87.26;101957.88;5027824;28;1343;-75
2023/09/15 00:16:59;;;;;;;;;;;;;;;13.18;87.80;101957.88;5032044;28;1248;-75
2023/09/15 00:19:24;;;;;;;;;;;;;;;13.18;87.17;101952.69;5024792;28;975;-75
2023/09/15 00:21:50;;;;;;;;;;;;;;;13.16;87.33;101951.97;5028129;28;1297;-75
2023/09/15 00:24:15;;;;;;;;;;;;;;;13.15;87.43;101952.09;5024974;28;1299;-76
2023/09/15 00:26:40;;;;;;;;;;;;;;;13.13;87.64;101949.63;5029794;28;1894;-75
2023/09/15 00:29:05;;;;;;;;;;;;;;;13.12;87.79;101947.94;5027829;28;1208;-76
2023/09/15 00:31:31;;;;;;;;;;;;;;;13.12;87.44;101947.94;5029186;28;1335;-76
2023/09/15 00:33:56;;;;;;;;;;;;;;;13.12;87.67;101945.31;5032593;28;1228;-76
2023/09/15 00:36:21;;;;;;;;;;;;;;;13.11;87.91;101941.06;5033661;28;1228;-76
2023/09/15 00:38:46;;;;;;;;;;;;;;;13.11;87.71;101941.06;5034138;28;1076;-76
2023/09/15 00:41:12;;;;;;;;;;;;;;;13.10;88.00;101944.63;5036207;28;1096;-76
2023/09/15 00:43:38;;;;;;;;;;;;;;;13.07;88.28;101939.63;5034761;28;1342;-76
2023/09/15 00:46:03;;;;;;;;;;;;;;;13.07;88.10;101939.63;5030877;28;1961;-76
2023/09/15 00:48:28;;;;;;;;;;;;;;;13.06;88.31;101944.94;5026891;28;1207;-74
2023/09/15 00:50:54;;;;;;;;;;;;;;;13.05;88.13;101941.53;5035756;28;1138;-75
2023/09/15 00:53:20;;;;;;;;;;;;;;;13.03;88.04;101943.41;5026154;28;1363;-75
2023/09/15 00:55:51;;;;;;;;;;;;;;;13.01;88.35;101934.88;5030532;28;1102;-75
2023/09/15 00:58:17;;;;;;;;;;;;;;;12.96;87.98;101931.78;5030220;28;1301;-75
2023/09/15 01:00:43;;;;;;;;;;;;;;;12.94;88.61;101933.69;5032054;28;1087;-76
2023/09/15 01:03:09;;;;;;;;;;;;;;;12.93;88.32;101932.84;5035094;28;1381;-74
2023/09/15 01:05:34;;;;;;;;;;;;;;;12.92;88.30;101927.75;5024107;28;1964;-74
2023/09/15 01:08:00;;;;;;;;;;;;;;;12.89;88.27;101931.41;5027361;28;1272;-74
2023/09/15 01:10:25;;;;;;;;;;;;;;;12.86;88.77;101930.81;5032280;28;1279;-74
2023/09/15 01:12:51;;;;;;;;;;;;;;;12.83;88.60;101920.63;5028366;28;1188;-74
2023/09/15 01:15:17;;;;;;;;;;;;;;;12.80;88.98;101915.66;5035050;23;1598;-76
2023/09/15 01:17:50;;;;;;;;;;;;;;;12.79;89.17;101919.16;4993539;28;1286;-74
2023/09/15 01:20:21;;;;;;;;;;;;;;;12.76;89.20;101910.66;5010383;28;1134;-75
2023/09/15 01:22:53;;;;;;;;;;;;;;;12.74;89.06;101915.16;4989294;28;1517;-74
2023/09/15 01:25:19;;;;;;;;;;;;;;;12.72;89.43;101909.22;5009234;28;1973;-76
2023/09/15 01:27:44;;;;;;;;;;;;;;;12.69;89.05;101914.66;4992560;28;1314;-74
2023/09/15 01:30:10;;;;;;;;;;;;;;;12.68;89.47;101906.97;4991166;28;1316;-74
2023/09/15 01:32:36;;;;;;;;;;;;;;;12.64;89.82;101906.34;4992042;28;1191;-74
2023/09/15 01:35:02;;;;;;;;;;;;;;;12.63;89.30;101915.09;5005367;28;1779;-75
2023/09/15 01:37:27;;;;;;;;;;;;;;;12.59;89.52;101905.84;4986347;28;1860;-78
2023/09/15 01:39:52;;;;;;;;;;;;;;;12.56;89.37;101900.88;5016331;28;1225;-75
2023/09/15 01:42:18;;;;;;;;;;;;;;;12.55;89.63;101907.00;5017822;28;1143;-76
2023/09/15 01:44:43;;;;;;;;;;;;;;;12.55;89.31;101900.97;5003730;28;1989;-75
2023/09/15 01:47:09;;;;;;;;;;;;;;;12.55;89.47;101898.38;5000489;28;1610;-75
2023/09/15 01:49:35;;;;;;;;;;;;;;;12.51;89.38;101892.59;5004526;28;1282;-75
2023/09/15 01:52:01;;;;;;;;;;;;;;;12.51;89.79;101899.56;5006171;28;1531;-74
2023/09/15 01:54:26;;;;;;;;;;;;;;;12.51;89.53;101894.34;5007440;28;1205;-76
2023/09/15 01:56:51;;;;;;;;;;;;;;;12.49;89.51;101897.03;5014173;28;1312;-79
2023/09/15 01:59:17;;;;;;;;;;;;;;;12.49;89.68;101907.44;5008294;28;1249;-79
2023/09/15 02:01:42;;;;;;;;;;;;;;;12.47;89.96;101901.53;5004602;28;1241;-79
2023/09/15 02:04:07;;;;;;;;;;;;;;;12.44;90.01;101900.00;4988326;28;1312;-79
2023/09/15 02:06:32;;;;;;;;;;;;;;;12.44;89.85;101899.16;4995013;28;1963;-79
2023/09/15 02:08:58;;;;;;;;;;;;;;;12.44;90.06;101894.81;5005928;28;1220;-79
2023/09/15 02:11:23;;;;;;;;;;;;;;;12.44;90.32;101893.94;4997422;28;1397;-79
2023/09/15 02:13:48;;;;;;;;;;;;;;;12.43;90.22;101897.50;5005379;28;1214;-80
2023/09/15 02:16:13;;;;;;;;;;;;;;;12.42;90.44;101893.22;4995742;28;1274;-79
2023/09/15 02:18:40;;;;;;;;;;;;;;;12.42;90.58;101890.63;4994099;28;1286;-80
2023/09/15 02:21:05;;;;;;;;;;;;;;;12.40;90.83;101888.16;4988812;28;1390;-80
2023/09/15 02:23:30;;;;;;;;;;;;;;;12.40;90.74;101897.72;5011805;28;1190;-79
2023/09/15 02:25:55;;;;;;;;;;;;;;;12.39;91.33;101893.47;4990858;28;1906;-80
2023/09/15 02:28:21;;;;;;;;;;;;;;;12.38;91.07;101889.19;4989922;28;1177;-79
2023/09/15 02:30:46;;;;;;;;;;;;;;;12.38;91.11;101884.81;5007738;28;1242;-79
2023/09/15 02:33:11;;;;;;;;;;;;;;;12.37;91.49;101887.53;4985842;28;1513;-79
2023/09/15 02:35:37;;;;;;;;;;;;;;;12.37;91.01;101888.34;5009133;28;1169;-79
2023/09/15 02:38:03;;;;;;;;;;;;;;;12.35;91.33;101889.41;4990493;28;1349;-79
2023/09/15 02:40:28;;;;;;;;;;;;;;;12.34;91.13;101883.38;4990601;28;1335;-79
2023/09/15 02:42:53;;;;;;;;;;;;;;;12.33;92.00;101891.28;5007086;28;1102;-79
2023/09/15 02:45:18;;;;;;;;;;;;;;;12.31;91.69;101893.19;4997475;28;1919;-80
2023/09/15 02:47:44;;;;;;;;;;;;;;;12.29;91.78;101889.88;5013057;28;1274;-79
2023/09/15 02:50:09;;;;;;;;;;;;;;;12.30;91.99;101883.72;5001625;28;1218;-79
2023/09/15 02:52:34;;;;;;;;;;;;;;;12.30;92.17;101883.72;5019100;28;1132;-79
2023/09/15 02:55:00;;;;;;;;;;;;;;;12.29;91.72;101882.06;5008756;28;1225;-80
2023/09/15 02:57:25;;;;;;;;;;;;;;;12.26;91.79;101875.28;5025846;28;1241;-79
2023/09/15 02:59:52;;;;;;;;;;;;;;;12.26;91.99;101871.88;5026380;28;1334;-79
2023/09/15 03:02:19;;;;;;;;;;;;;;;12.25;91.95;101878.84;5012712;28;1477;-79
2023/09/15 03:04:46;;;;;;;;;;;;;;;12.20;92.48;101873.97;5012016;28;2018;-79
2023/09/15 03:07:11;;;;;;;;;;;;;;;12.21;92.29;101875.66;5012894;28;1293;-79
2023/09/15 03:09:36;;;;;;;;;;;;;;;12.21;92.58;101872.19;5014482;28;1244;-79
2023/09/15 03:12:02;;;;;;;;;;;;;;;12.19;92.16;101874.91;5027221;28;1344;-79
2023/09/15 03:14:27;;;;;;;;;;;;;;;12.19;92.30;101869.69;5037338;28;1557;-80
2023/09/15 03:16:52;;;;;;;;;;;;;;;12.20;92.80;101873.13;5013298;28;1282;-79
2023/09/15 03:19:17;;;;;;;;;;;;;;;12.19;92.13;101874.06;5013385;28;1503;-80
2023/09/15 03:21:43;;;;;;;;;;;;;;;12.18;92.34;101873.25;5012509;28;1305;-79
2023/09/15 03:24:08;;;;;;;;;;;;;;;12.19;92.49;101863.69;5029599;28;1289;-79
2023/09/15 03:26:33;;;;;;;;;;;;;;;12.19;92.75;101867.09;5034947;28;1890;-78
2023/09/15 03:28:58;;;;;;;;;;;;;;;12.17;92.77;101866.41;5015394;28;1246;-78
2023/09/15 03:31:24;;;;;;;;;;;;;;;12.15;92.42;101867.44;5026921;28;1189;-79
2023/09/15 03:33:49;;;;;;;;;;;;;;;12.15;92.43;101872.63;5014203;28;1385;-79
2023/09/15 03:36:14;;;;;;;;;;;;;;;12.12;93.21;101865.06;5011029;28;1238;-79
2023/09/15 03:38:40;;;;;;;;;;;;;;;12.09;92.87;101858.28;5015760;28;1270;-79
2023/09/15 03:41:06;;;;;;;;;;;;;;;12.08;92.64;101856.63;5030212;28;1423;-79
2023/09/15 03:43:32;;;;;;;;;;;;;;;12.09;93.18;101850.50;5026160;28;1269;-80
2023/09/15 03:45:58;;;;;;;;;;;;;;;12.08;92.86;101848.84;5023223;28;1893;-80
2023/09/15 03:48:24;;;;;;;;;;;;;;;12.06;93.09;101845.53;5026812;28;1062;-79
2023/09/15 03:50:49;;;;;;;;;;;;;;;12.04;92.96;101849.97;5022324;28;1223;-80
2023/09/15 03:53:14;;;;;;;;;;;;;;;12.04;93.64;101844.78;5013339;28;1492;-79
2023/09/15 03:55:39;;;;;;;;;;;;;;;12.02;93.50;101846.69;5034070;28;1201;-79
2023/09/15 03:58:04;;;;;;;;;;;;;;;12.03;93.24;101848.34;5035171;28;1252;-79
2023/09/15 04:00:30;;;;;;;;;;;;;;;12.03;93.83;101847.50;5011205;28;1316;-79
2023/09/15 04:02:55;;;;;;;;;;;;;;;12.01;93.20;101839.81;5015208;28;1276;-79
2023/09/15 04:05:20;;;;;;;;;;;;;;;11.99;93.81;101841.72;5019336;28;1961;-79
2023/09/15 04:07:46;;;;;;;;;;;;;;;11.96;93.48;101847.13;5012732;28;1546;-79
2023/09/15 04:10:11;;;;;;;;;;;;;;;11.94;93.60;101849.00;5027010;28;1230;-78
2023/09/15 04:12:36;;;;;;;;;;;;;;;11.90;93.78;101837.16;5031283;28;1145;-79
2023/09/15 04:15:04;;;;;;;;;;;;;;;11.88;93.25;101839.03;5034466;28;1398;-79
2023/09/15 04:17:29;;;;;;;;;;;;;;;11.86;93.81;101841.72;5010655;28;1713;-79
2023/09/15 04:19:54;;;;;;;;;;;;;;;11.85;93.65;101841.84;5012972;28;1482;-79
2023/09/15 04:22:20;;;;;;;;;;;;;;;11.84;94.22;101832.38;5028159;28;1296;-79
2023/09/15 04:24:45;;;;;;;;;;;;;;;11.84;93.50;101837.59;5033596;28;1906;-78
2023/09/15 04:27:10;;;;;;;;;;;;;;;11.82;94.03;101837.72;5034973;28;1197;-79
2023/09/15 04:29:49;;;;;;;;;;;;;;;11.80;93.61;101836.09;5032191;28;1324;-78
2023/09/15 04:32:15;;;;;;;;;;;;;;;11.79;94.50;101834.44;5010691;28;1718;-78
2023/09/15 04:34:40;;;;;;;;;;;;;;;11.77;94.48;101831.13;5035066;28;1087;-79
2023/09/15 04:37:06;;;;;;;;;;;;;;;11.73;94.19;101833.13;5027862;28;1213;-78
2023/09/15 04:39:31;;;;;;;;;;;;;;;11.73;94.65;101830.50;5030161;28;1245;-78
2023/09/15 04:41:56;;;;;;;;;;;;;;;11.69;94.84;101832.47;5027471;28;1177;-78
2023/09/15 04:44:21;;;;;;;;;;;;;;;11.69;94.59;101824.69;5010594;28;1299;-79
2023/09/15 04:46:47;;;;;;;;;;;;;;;11.67;94.84;101833.53;5024718;28;1886;-78
2023/09/15 04:49:12;;;;;;;;;;;;;;;11.65;94.14;101838.84;5027085;28;1171;-78
2023/09/15 04:51:40;;;;;;;;;;;;;;;11.63;94.93;101829.50;5022085;28;1101;-78
2023/09/15 04:54:05;;;;;;;;;;;;;;;11.60;94.80;101829.72;5024730;28;1197;-78
2023/09/15 04:56:30;;;;;;;;;;;;;;;11.56;95.37;101823.06;5029496;28;1017;-79
2023/09/15 04:58:55;;;;;;;;;;;;;;;11.54;94.77;101833.56;5030914;28;1213;-79
2023/09/15 05:01:21;;;;;;;;;;;;;;;11.54;95.27;101836.16;5031353;28;1228;-78
2023/09/15 05:03:46;;;;;;;;;;;;;;;11.51;95.18;101836.38;5033200;28;1278;-79
2023/09/15 05:06:11;;;;;;;;;;;;;;;11.50;95.27;101834.72;5026206;28;1953;-79
2023/09/15 05:08:36;;;;;;;;;;;;;;;11.50;94.92;101836.50;5035136;28;1285;-78
2023/09/15 05:11:02;;;;;;;;;;;;;;;11.48;95.24;101836.59;5010090;28;1201;-78
2023/09/15 05:13:27;;;;;;;;;;;;;;;11.45;95.13;101842.00;5030056;28;1317;-79
2023/09/15 05:15:52;;;;;;;;;;;;;;;11.44;95.87;101840.34;5015918;28;1365;-78
2023/09/15 05:18:17;;;;;;;;;;;;;;;11.44;95.33;101835.97;5033148;28;1257;-79
2023/09/15 05:20:42;;;;;;;;;;;;;;;11.45;95.00;101831.59;5032447;28;1098;-79
2023/09/15 05:23:08;;;;;;;;;;;;;;;11.41;95.35;101840.53;5030584;28;1216;-78
2023/09/15 05:25:34;;;;;;;;;;;;;;;11.41;95.54;101835.34;5013208;28;1971;-79
2023/09/15 05:28:01;;;;;;;;;;;;;;;11.39;95.34;101847.63;5029591;28;1233;-79
2023/09/15 05:30:26;;;;;;;;;;;;;;;11.37;95.73;101845.13;5031751;28;1266;-79
2023/09/15 05:32:51;;;;;;;;;;;;;;;11.34;95.48;101844.50;5023252;28;1296;-78
2023/09/15 05:35:17;;;;;;;;;;;;;;;11.32;95.73;101848.97;5023828;28;1277;-79
2023/09/15 05:37:42;;;;;;;;;;;;;;;11.33;95.86;101855.81;5029431;28;1292;-78
2023/09/15 05:40:08;;;;;;;;;;;;;;;11.33;96.18;101853.22;5029066;28;1058;-79
2023/09/15 05:42:33;;;;;;;;;;;;;;;11.31;95.57;101861.13;5025906;28;1260;-79
2023/09/15 05:44:59;;;;;;;;;;;;;;;11.30;96.28;101854.28;5026422;28;1890;-78
2023/09/15 05:47:24;;;;;;;;;;;;;;;11.29;96.18;101856.97;5005792;28;1313;-79
2023/09/15 05:49:49;;;;;;;;;;;;;;;11.29;96.88;101862.16;5021677;28;1186;-79
2023/09/15 05:52:14;;;;;;;;;;;;;;;11.25;97.13;101861.56;5008023;28;1511;-79
2023/09/15 05:54:39;;;;;;;;;;;;;;;11.26;96.11;101857.19;5021147;28;1461;-79
2023/09/15 05:57:05;;;;;;;;;;;;;;;11.29;96.36;101864.75;5026612;28;1162;-80
2023/09/15 05:59:30;;;;;;;;;;;;;;;11.31;96.66;101870.69;5029981;28;1277;-79
2023/09/15 06:01:56;;;;;;;;;;;;;;;11.32;96.04;101864.56;5022833;28;1501;-78
2023/09/15 06:04:21;;;;;;;;;;;;;;;11.34;96.38;101862.69;5027787;28;1245;-79
2023/09/15 06:06:47;;;;;;;;;;;;;;;11.33;96.19;101863.63;5028922;28;1964;-79
2023/09/15 06:09:13;;;;;;;;;;;;;;;11.35;96.82;101861.75;5038234;28;1142;-80
2023/09/15 06:11:38;;;;;;;;;;;;;;;11.35;96.75;101861.75;5023873;28;1339;-80
2023/09/15 06:14:03;;;;;;;;;;;;;;;11.37;96.75;101859.88;5032446;28;1439;-79
2023/09/15 06:16:29;;;;;;;;;;;;;;;11.39;96.95;101863.19;5032010;28;1541;-79
2023/09/15 06:18:54;;;;;;;;;;;;;;;11.44;96.70;101866.31;5010527;28;1604;-79
2023/09/15 06:21:19;;;;;;;;;;;;;;;11.46;96.51;101868.81;5029117;28;1437;-79
2023/09/15 06:23:44;;;;;;;;;;;;;;;11.49;96.57;101874.63;5031783;28;1161;-80
2023/09/15 06:26:09;;;;;;;;;;;;;;;11.53;97.20;101870.88;5026819;28;1965;-79
2023/09/15 06:28:35;;;;;;;;;;;;;;;11.58;97.04;101878.34;5038938;28;1095;-79
2023/09/15 06:31:00;;;;;;;;;;;;;;;11.59;97.34;101864.44;5032343;28;1055;-79
2023/09/15 06:33:25;;;;;;;;;;;;;;;11.65;97.86;101867.44;5010406;28;1289;-79
2023/09/15 06:35:50;;;;;;;;;;;;;;;11.70;97.48;101862.75;5034611;28;1117;-79
2023/09/15 06:38:15;;;;;;;;;;;;;;;11.77;97.22;101862.31;5037345;28;1086;-79
2023/09/15 06:40:41;;;;;;;;;;;;;;;11.82;97.75;101862.88;5029298;28;1169;-79
2023/09/15 06:43:06;;;;;;;;;;;;;;;11.88;97.82;101865.03;5026887;28;1250;-79
2023/09/15 06:45:31;;;;;;;;;;;;;;;11.93;98.12;101868.16;5018144;28;1890;-79
2023/09/15 06:47:58;;;;;;;;;;;;;;;11.98;98.06;101855.63;5032561;28;1070;-79
2023/09/15 06:50:24;;;;;;;;;;;;;;;12.06;98.34;101858.53;5033423;28;1046;-81
2023/09/15 06:52:49;;;;;;;;;;;;;;;12.13;98.46;101851.94;5032493;28;1383;-78
2023/09/15 06:55:14;;;;;;;;;;;;;;;12.19;97.69;101854.09;5025211;28;1227;-78
2023/09/15 06:57:40;;;;;;;;;;;;;;;12.26;98.08;101848.44;5026959;28;1037;-78
2023/09/15 07:00:06;;;;;;;;;;;;;;;12.33;97.80;101847.06;5028297;28;1229;-79
2023/09/15 07:02:31;;;;;;;;;;;;;;;12.40;98.58;101845.69;5028849;28;1322;-78
2023/09/15 07:04:56;;;;;;;;;;;;;;;12.47;98.50;101855.53;5029911;28;1961;-78
2023/09/15 07:07:22;;;;;;;;;;;;;;;12.54;97.99;101850.69;5029613;28;1360;-79
2023/09/15 07:09:47;;;;;;;;;;;;;;;12.58;97.98;101852.16;5036503;28;1133;-78
2023/09/15 07:12:12;;;;;;;;;;;;;;;12.63;98.44;101852.63;5036645;28;1605;-78
2023/09/15 07:14:37;;;;;;;;;;;;;;;12.71;98.30;101855.50;5041379;28;1242;-78
2023/09/15 07:17:03;;;;;;;;;;;;;;;12.84;97.76;101851.97;5016826;28;1300;-79
2023/09/15 07:19:28;;;;;;;;;;;;;;;12.89;97.70;101849.84;5032486;28;1200;-78
2023/09/15 07:21:54;;;;;;;;;;;;;;;12.93;97.67;101856.50;5036315;28;1351;-78
2023/09/15 07:24:19;;;;;;;;;;;;;;;13.03;98.12;101855.69;5039979;28;1359;-78
2023/09/15 07:26:44;;;;;;;;;;;;;;;13.09;97.73;101844.00;5028541;28;1922;-79
2023/09/15 07:29:09;;;;;;;;;;;;;;;13.16;97.57;101850.38;5036727;28;1214;-78
2023/09/15 07:31:35;;;;;;;;;;;;;;;13.22;97.34;101839.53;5038514;28;1298;-78
2023/09/15 07:34:01;;;;;;;;;;;;;;;13.29;97.20;101835.50;5031891;28;1260;-78
2023/09/15 07:36:26;;;;;;;;;;;;;;;13.35;96.79;101834.19;5025935;28;1213;-79
2023/09/15 07:38:52;;;;;;;;;;;;;;;13.41;96.65;101830.28;5035578;28;1510;-79
2023/09/15 07:41:18;;;;;;;;;;;;;;;13.49;96.57;101817.50;5029384;28;998;-79
2023/09/15 07:43:43;;;;;;;;;;;;;;;13.58;96.42;101829.81;5013659;28;1223;-78
2023/09/15 07:46:08;;;;;;;;;;;;;;;13.65;96.25;101831.00;5029296;28;1894;-79
2023/09/15 07:48:34;;;;;;;;;;;;;;;13.71;95.84;101829.69;5015292;28;1279;-79
2023/09/15 07:50:59;;;;;;;;;;;;;;;13.79;95.92;101822.06;5027038;28;1640;-78
2023/09/15 07:53:24;;;;;;;;;;;;;;;13.87;95.92;101824.06;5031518;28;1595;-78
2023/09/15 07:55:49;;;;;;;;;;;;;;;13.95;95.62;101821.69;5032201;28;1201;-78
2023/09/15 07:58:14;;;;;;;;;;;;;;;14.05;95.58;101820.00;5031256;28;1234;-78
2023/09/15 08:00:40;;;;;;;;;;;;;;;14.13;95.71;101820.22;5032029;28;1275;-78
2023/09/15 08:03:05;;;;;;;;;;;;;;;14.25;95.33;101824.44;5015616;28;1263;-78
2023/09/15 08:05:30;;;;;;;;;;;;;;;14.34;94.83;101815.88;5027372;28;1891;-79
2023/09/15 08:07:55;;;;;;;;;;;;;;;14.38;94.78;101813.81;5029073;28;1569;-78
2023/09/15 08:10:22;;;;;;;;;;;;;;;14.44;93.88;101815.91;5029019;28;1511;-78
2023/09/15 08:12:52;;;;;;;;;;;;;;;14.50;93.95;101812.00;5029211;28;1707;-79
2023/09/15 08:15:18;;;;;;;;;;;;;;;14.59;93.58;101814.69;5029484;28;1276;-79
2023/09/15 08:17:43;;;;;;;;;;;;;;;14.64;93.51;101809.09;5035907;28;1079;-78
2023/09/15 08:20:11;;;;;;;;;;;;;;;14.77;93.03;101804.50;5031951;28;1253;-79
2023/09/15 08:22:38;;;;;;;;;;;;;;;14.83;92.74;101814.44;5036478;28;1458;-78
2023/09/15 08:25:03;;;;;;;;;;;;;;;14.87;92.48;101805.41;5030362;28;1899;-79
2023/09/15 08:27:29;;;;;;;;;;;;;;;14.95;92.26;101802.13;5025592;28;1163;-79
2023/09/15 08:29:54;;;;;;;;;;;;;;;15.05;92.70;101802.19;5032832;28;1206;-79
2023/09/15 08:32:19;;;;;;;;;;;;;;;15.17;92.06;101811.59;5028818;28;1273;-79
2023/09/15 08:34:44;;;;;;;;;;;;;;;15.24;91.71;101802.25;5022730;28;1265;-78
2023/09/15 08:37:09;;;;;;;;;;;;;;;15.33;91.11;101814.53;5030483;28;1234;-79
2023/09/15 08:39:34;;;;;;;;;;;;;;;15.40;90.58;101809.63;5013285;28;1265;-78
2023/09/15 08:42:01;;;;;;;;;;;;;;;15.48;89.51;101809.75;5009757;28;1293;-79
2023/09/15 08:44:28;;;;;;;;;;;;;;;15.56;89.10;101806.50;5025240;28;1106;-78
2023/09/15 08:46:55;;;;;;;;;;;;;;;15.55;88.79;101810.09;5036592;28;1910;-79
2023/09/15 08:49:20;;;;;;;;;;;;;;;15.63;87.24;101802.41;5026369;28;1245;-78
2023/09/15 08:51:46;;;;;;;;;;;;;;;15.68;86.63;101810.69;5026723;28;1249;-79
2023/09/15 08:54:12;;;;;;;;;;;;;;;15.76;87.78;101813.44;5030574;28;1281;-78
2023/09/15 08:56:37;;;;;;;;;;;;;;;15.85;87.17;101798.75;5032487;28;1193;-79
2023/09/15 08:59:04;;;;;;;;;;;;;;;15.97;86.28;101804.69;5024046;28;1470;-79
2023/09/15 09:01:30;;;;;;;;;;;;;;;16.06;87.02;101803.88;5028615;28;1217;-79
2023/09/15 09:03:55;;;;;;;;;;;;;;;16.13;86.65;101804.97;5031790;28;1694;-78
2023/09/15 09:06:21;;;;;;;;;;;;;;;16.21;86.08;101797.25;5030156;28;2214;-78
2023/09/15 09:08:47;;;;;;;;;;;;;;;16.30;85.37;101791.19;5030191;28;1193;-79
2023/09/15 09:11:13;;;;;;;;;;;;;;;16.36;85.34;101795.88;5029488;28;1200;-78
2023/09/15 09:13:38;;;;;;;;;;;;;;;16.44;85.47;101790.75;5029208;28;1266;-78
2023/09/15 09:16:07;;;;;;;;;;;;;;;16.51;85.35;101790.19;5013914;28;1330;-78
2023/09/15 09:18:33;;;;;;;;;;;;;;;16.54;83.89;101793.38;5028153;28;1273;-80
2023/09/15 09:20:58;;;;;;;;;;;;;;;16.61;83.04;101783.16;5030330;28;1146;-79
2023/09/15 09:23:24;;;;;;;;;;;;;;;16.69;83.95;101788.53;5027717;28;1535;-78
2023/09/15 09:25:49;;;;;;;;;;;;;;;16.77;82.73;101780.81;5018975;28;1910;-79
2023/09/15 09:28:14;;;;;;;;;;;;;;;16.86;80.71;101787.81;5027918;28;1217;-79
2023/09/15 09:30:40;;;;;;;;;;;;;;;16.94;81.69;101784.47;5032294;28;1065;-79
2023/09/15 09:33:08;;;;;;;;;;;;;;;17.01;82.58;101782.94;5024634;28;1273;-79
2023/09/15 09:35:33;;;;;;;;;;;;;;;17.12;80.44;101776.69;5017482;28;1185;-78
2023/09/15 09:37:59;;;;;;;;;;;;;;;17.25;80.94;101779.78;5016818;28;1598;-80
2023/09/15 09:40:25;;;;;;;;;;;;;;;17.37;79.98;101770.75;5008596;28;1242;-79
2023/09/15 09:42:51;;;;;;;;;;;;;;;17.43;79.41;101770.19;5027841;28;1311;-79
2023/09/15 09:45:17;;;;;;;;;;;;;;;17.51;77.77;101770.25;5033084;28;1887;-79
2023/09/15 09:47:42;;;;;;;;;;;;;;;17.56;76.42;101769.00;5027879;28;1510;-79
2023/09/15 09:50:09;;;;;;;;;;;;;;;17.63;78.00;101770.06;5028988;28;1010;-79
2023/09/15 09:52:35;;;;;;;;;;;;;;;17.79;78.05;101775.50;5030024;28;1292;-79
2023/09/15 09:55:01;;;;;;;;;;;;;;;17.87;78.07;101767.69;5022731;28;1234;-79
2023/09/15 09:57:26;;;;;;;;;;;;;;;17.94;75.04;101773.16;5028929;28;1209;-79
2023/09/15 09:59:52;;;;;;;;;;;;;;;18.05;77.25;101765.88;5026795;28;1291;-80
2023/09/15 10:02:17;;;;;;;;;;;;;;;18.17;75.21;101773.53;5029025;28;1235;-79
2023/09/15 10:04:42;;;;;;;;;;;;;;;18.26;75.05;101772.63;5030074;28;1894;-79
2023/09/15 10:07:08;;;;;;;;;;;;;;;18.32;74.21;101766.78;5012331;28;1164;-79
2023/09/15 10:09:33;;;;;;;;;;;;;;;18.32;71.00;101766.78;5025448;28;1090;-78
2023/09/15 10:11:58;;;;;;;;;;;;;;;18.39;74.15;101767.81;5036748;28;1353;-79
2023/09/15 10:14:25;;;;;;;;;;;;;;;18.58;74.13;101765.00;5033212;28;1238;-79
2023/09/15 10:16:51;;;;;;;;;;;;;;;18.74;74.82;101760.81;5014429;28;1370;-79
2023/09/15 10:19:16;;;;;;;;;;;;;;;18.85;73.74;101763.19;5033770;28;1098;-79
2023/09/15 10:21:42;;;;;;;;;;;;;;;18.99;70.77;101759.16;5036083;28;1285;-79
2023/09/15 10:24:08;;;;;;;;;;;;;;;19.09;72.81;101749.34;5015793;28;1486;-79
2023/09/15 10:26:34;;;;;;;;;;;;;;;19.12;66.59;101753.47;5025041;28;1906;-79
2023/09/15 10:28:59;;;;;;;;;;;;;;;19.09;69.77;101747.53;5028746;28;999;-79
2023/09/15 10:31:25;;;;;;;;;;;;;;;19.20;71.33;101745.59;5031860;28;1193;-79
2023/09/15 10:33:53;;;;;;;;;;;;;;;19.25;70.34;101740.69;5036360;28;1165;-78
2023/09/15 10:36:18;;;;;;;;;;;;;;;19.30;70.43;101735.78;5026595;28;1296;-79
2023/09/15 10:38:45;;;;;;;;;;;;;;;19.41;67.56;101732.84;5036181;28;1087;-79
2023/09/15 10:41:11;;;;;;;;;;;;;;;19.41;65.77;101737.28;5028173;28;1276;-78
2023/09/15 10:43:47;;;;;;;;;;;;;;;19.36;67.37;101732.50;5032647;28;1034;-79
2023/09/15 10:46:12;;;;;;;;;;;;;;;19.43;67.80;101730.88;5013707;28;1994;-78
2023/09/15 10:48:38;;;;;;;;;;;;;;;19.48;68.02;101727.75;5036934;28;1487;-79
2023/09/15 10:51:10;;;;;;;;;;;;;;;19.58;68.26;101729.28;5001912;28;2363;-79
2023/09/15 10:54:00;;;;;;;;;;;;;;;19.69;68.38;101719.44;5017573;28;1972;-79
2023/09/15 10:56:26;;;;;;;;;;;;;;;19.86;67.77;101721.09;5016516;28;1937;-78
2023/09/15 10:58:51;;;;;;;;;;;;;;;20.02;67.56;101717.66;5003870;28;2095;-80
2023/09/15 11:01:17;;;;;;;;;;;;;;;20.00;68.47;101712.53;5017607;28;1906;-80
2023/09/15 11:03:42;;;;;;;;;;;;;;;20.02;67.36;101704.47;5002723;28;1983;-79
2023/09/15 11:06:09;;;;;;;;;;;;;;;20.16;67.47;101711.69;5013605;28;1969;-78
2023/09/15 11:08:35;;;;;;;;;;;;;;;20.20;67.20;101709.56;5016739;28;2549;-79
2023/09/15 11:11:04;;;;;;;;;;;;;;;20.30;66.10;101711.03;5018506;28;1877;-80
2023/09/15 11:13:29;;;;;;;;;;;;;;;20.28;65.19;101714.81;5013045;28;2399;-79
2023/09/15 11:15:54;;;;;;;;;;;;;;;20.19;65.99;101700.84;5035101;28;2045;-79
2023/09/15 11:18:20;;;;;;;;;;;;;;;20.31;65.07;101698.69;5016564;28;1186;-79
2023/09/15 11:20:45;;;;;;;;;;;;;;;20.39;66.42;101696.03;5016975;28;1867;-79
2023/09/15 11:23:11;;;;;;;;;;;;;;;20.50;65.80;101698.31;5013645;28;1776;-79
2023/09/15 11:25:36;;;;;;;;;;;;;;;20.65;66.12;101696.66;5014263;28;2045;-80
2023/09/15 11:28:01;;;;;;;;;;;;;;;20.79;65.45;101686.38;5019948;28;2065;-79
2023/09/15 11:30:28;;;;;;;;;;;;;;;20.86;65.23;101692.59;5032104;28;933;-78
2023/09/15 11:32:54;;;;;;;;;;;;;;;20.94;64.01;101689.94;5026550;28;1234;-78
2023/09/15 11:35:20;;;;;;;;;;;;;;;21.05;64.29;101686.91;5016895;28;1185;-79
2023/09/15 11:37:46;;;;;;;;;;;;;;;21.04;64.72;101685.25;5031573;28;1141;-79
2023/09/15 11:40:21;;;;;;;;;;;;;;;21.06;64.28;101688.56;5031958;28;1105;-78
2023/09/15 11:42:52;;;;;;;;;;;;;;;21.07;63.38;101682.28;5025530;28;1244;-79
2023/09/15 11:45:18;;;;;;;;;;;;;;;21.09;64.14;101676.81;5032619;28;1894;-78
2023/09/15 11:47:45;;;;;;;;;;;;;;;21.19;64.21;101688.81;5010987;28;2608;-78
2023/09/15 11:50:10;;;;;;;;;;;;;;;21.28;63.15;101680.84;5012666;28;1868;-79
2023/09/15 11:52:36;;;;;;;;;;;;;;;21.37;64.11;101674.53;5012443;28;2674;-79
2023/09/15 11:55:01;;;;;;;;;;;;;;;21.48;62.10;101676.78;5020514;28;1384;-80
2023/09/15 11:57:26;;;;;;;;;;;;;;;21.46;61.62;101678.78;5026695;28;1010;-79
2023/09/15 11:59:51;;;;;;;;;;;;;;;21.56;63.23;101668.78;5025619;28;1150;-80
2023/09/15 12:02:19;;;;;;;;;;;;;;;21.54;60.34;101673.44;5029681;28;1478;-79
2023/09/15 12:04:44;;;;;;;;;;;;;;;21.46;61.98;101668.22;5030665;28;1020;-79
2023/09/15 12:07:09;;;;;;;;;;;;;;;21.50;61.00;101674.78;5030540;28;1886;-79
2023/09/15 12:09:34;;;;;;;;;;;;;;;21.57;61.51;101675.72;5034277;28;1355;-79
2023/09/15 12:12:00;;;;;;;;;;;;;;;21.57;60.40;101662.53;5022876;28;1075;-79
2023/09/15 12:14:25;;;;;;;;;;;;;;;21.60;61.94;101659.53;5029313;28;1115;-81
2023/09/15 12:16:50;;;;;;;;;;;;;;;21.63;62.57;101653.91;5016752;28;1479;-79
2023/09/15 12:19:16;;;;;;;;;;;;;;;21.76;61.93;101663.03;5029210;28;1269;-79
2023/09/15 12:21:55;;;;;;;;;;;;;;;21.84;61.72;101655.03;5026466;28;1111;-79
2023/09/15 12:24:20;;;;;;;;;;;;;;;21.93;61.56;101648.69;5034182;28;1201;-79
2023/09/15 12:26:46;;;;;;;;;;;;;;;22.01;61.38;101656.50;5025369;28;2259;-79
2023/09/15 12:29:12;;;;;;;;;;;;;;;22.06;58.79;101648.88;5032826;28;1090;-80
2023/09/15 12:31:47;;;;;;;;;;;;;;;22.12;60.97;101656.09;5030751;28;1017;-79
2023/09/15 12:34:19;;;;;;;;;;;;;;;22.26;60.71;101638.63;5030700;28;1176;-79
2023/09/15 12:36:45;;;;;;;;;;;;;;;22.31;60.16;101646.00;5028085;28;937;-79
2023/09/15 12:39:11;;;;;;;;;;;;;;;22.21;60.29;101636.53;5010020;28;1272;-79
2023/09/15 12:41:36;;;;;;;;;;;;;;;22.24;60.19;101641.44;5023947;28;1060;-78